Estación Meteorológica Peña el Pijo (Robertgarden) [ 02/03/23 03:30:32 CET ]

Fecha Hora Presion(HPa) Temp (°C) Humedad % Rocio (°C) Viento ( m/s) Direccion Lluvia 1Hora(mm) Lluvia 24H(mm) LLuvia Total(mm)
2010-Jan-09 01:01:12 1000.500 -3.2 68 -8.3         62.16
2010-Jan-09 02:03:16 1000.400 -3.2 67 -8.5         62.16
2010-Jan-09 03:01:13 1000.900 -3.2 66 -8.7 2.0 S     62.16
2010-Jan-09 04:01:13 1000.700 -3.6 66 -9.1         62.16
2010-Jan-09 05:01:14 1000.800 -3.8 67 -9.1         62.16
2010-Jan-09 06:01:22 1000.900 -3.8 67 -9.1         62.16
2010-Jan-09 07:01:13 1001.300 -4.2 68 -9.3         62.16
2010-Jan-09 08:01:11 1001.600 -4.6 68 -9.6         62.16
2010-Jan-09 09:01:18 1001.700 -4.7 69 -9.5         62.16
2010-Jan-09 10:01:17 1002.200 -2.4 65 -8.1         62.16
2010-Jan-09 11:01:13 1003.300 -0.4 59 -7.4         62.16
2010-Jan-09 12:01:12 1003.300 -0.4 57 -7.9         62.16
2010-Jan-09 13:01:14 1003.100 1.8 50 -7.5         62.16
2010-Jan-09 14:01:14 1002.300 0.6 52 -8.2 1.0 NE 0.51 0.51 62.67
2010-Jan-09 15:01:14 1002.200 1.2 51 -7.9       0.51 62.67
2010-Jan-09 16:01:12 1002.500 0.4 49 -9.1 2.1 SW   0.51 62.67
2010-Jan-09 17:01:13 1002.500 -0.7 55 -8.7       0.51 62.67
2010-Jan-09 18:01:12 1003.000 -1.1 58 -8.3       0.51 62.67
2010-Jan-09 19:01:14 1003.500 -1.7 59 -8.7       0.51 62.67
2010-Jan-09 20:31:12 1004.700 -1.8 62 -8.1       0.51 62.67
2010-Jan-09 21:01:15 1005.100 -1.8 64 -7.7       0.51 62.67
2010-Jan-09 22:01:10 1005.200 -2.1 65 -7.8       0.51 62.67
2010-Jan-09 23:01:15 1005.300 -3.2 67 -8.5       0.51 62.67

Temperatura Máxima:    Temperatura Mínima:-4°
Presión Máxima:1005.300 Hpa    Presión Mínima:1000.400 Hpa


Volver